Time;durP1;ratioP1;P1;durP2;ratioP2;P2;SDS_P1;SDS_P2;PMS_P1;PMS_P2;Temp;Humidity;BMP_temperature;BMP_pressure;BME280_temperature;BME280_humidity;BME280_pressure;Samples;Min_cycle;Max_cycle;Signal;HPM_P1;HPM_P2
2023/07/29 00:00:56;;;;;;;4.88;2.65;;;;;;;13.20;100.00;92759.31;2117634;27;20066;-82
2023/07/29 00:01:56;;;;;;;4.25;3.10;;;;;;;13.23;100.00;92761.91;2108316;27;20026;-81
2023/07/29 00:02:57;;;;;;;7.80;2.90;;;;;;;13.21;100.00;92766.16;2104086;28;20436;-83
2023/07/29 00:03:58;;;;;;;9.52;2.95;;;;;;;13.22;100.00;92762.31;2105963;28;20028;-81
2023/07/29 00:04:59;;;;;;;8.73;2.95;;;;;;;13.20;100.00;92759.31;2116075;27;20053;-81
2023/07/29 00:06:00;;;;;;;4.93;3.30;;;;;;;13.28;100.00;92757.91;2115521;28;20030;-79
2023/07/29 00:07:01;;;;;;;4.30;2.80;;;;;;;13.38;100.00;92762.09;2111995;28;20050;-81
2023/07/29 00:08:02;;;;;;;5.13;2.85;;;;;;;13.32;100.00;92761.94;2107599;28;20107;-83
2023/07/29 00:09:03;;;;;;;6.18;2.80;;;;;;;13.41;100.00;92752.44;2109412;28;21604;-81
2023/07/29 00:10:07;;;;;;;3.90;2.65;;;;;;;13.39;100.00;92754.78;2099688;28;20020;-79
2023/07/29 00:11:08;;;;;;;6.10;2.50;;;;;;;13.31;100.00;92762.38;2103103;28;20582;-84
2023/07/29 00:12:09;;;;;;;8.30;2.80;;;;;;;13.20;100.00;92753.94;2110031;27;20070;-80
2023/07/29 00:13:10;;;;;;;5.35;2.33;;;;;;;13.09;100.00;92757.78;2113382;27;20015;-83
2023/07/29 00:14:10;;;;;;;5.18;2.20;;;;;;;13.18;100.00;92759.03;2115226;28;20539;-79
2023/07/29 00:15:11;;;;;;;2.60;2.13;;;;;;;13.17;100.00;92760.97;2100343;28;20025;-78
2023/07/29 00:16:12;;;;;;;4.40;2.38;;;;;;;13.17;100.00;92749.44;2107505;28;20030;-80
2023/07/29 00:17:13;;;;;;;9.88;2.38;;;;;;;13.16;100.00;92750.66;2115520;27;20019;-79
2023/07/29 00:18:14;;;;;;;4.05;2.33;;;;;;;13.19;100.00;92745.16;2107112;28;20031;-79
2023/07/29 00:19:15;;;;;;;7.43;2.70;;;;;;;13.16;100.00;92751.38;2106666;28;20036;-82
2023/07/29 00:20:16;;;;;;;2.45;2.05;;;;;;;13.14;100.00;92748.41;2112876;27;20027;-80
2023/07/29 00:21:17;;;;;;;6.20;2.42;;;;;;;13.10;100.00;92748.53;2106815;28;20024;-82
2023/07/29 00:22:18;;;;;;;5.53;2.13;;;;;;;12.97;100.00;92747.13;2097936;28;20072;-79
2023/07/29 00:23:19;;;;;;;4.88;2.17;;;;;;;12.86;100.00;92742.16;2098690;28;20070;-79
2023/07/29 00:24:20;;;;;;;4.25;2.10;;;;;;;12.85;100.00;92741.41;2106266;28;20020;-83
2023/07/29 00:25:21;;;;;;;5.50;2.30;;;;;;;12.93;100.00;92739.22;2106879;28;20023;-80
2023/07/29 00:26:25;;;;;;;4.03;2.47;;;;;;;12.81;100.00;92737.34;2106892;28;20039;-81
2023/07/29 00:27:26;;;;;;;5.07;1.92;;;;;;;12.84;100.00;92731.88;2111129;28;20020;-80
2023/07/29 00:28:27;;;;;;;6.63;2.13;;;;;;;12.82;100.00;92731.56;2106074;28;20028;-79
2023/07/29 00:29:29;;;;;;;3.33;1.80;;;;;;;12.76;100.00;92733.31;2098697;28;20723;-79
2023/07/29 00:30:30;;;;;;;9.32;2.33;;;;;;;12.80;100.00;92727.81;2112877;28;20028;-82
2023/07/29 00:31:31;;;;;;;2.53;2.30;;;;;;;12.93;100.00;92733.84;2098727;28;20120;-81
2023/07/29 00:32:32;;;;;;;2.30;1.70;;;;;;;12.99;100.00;92729.41;2105087;28;20078;-82
2023/07/29 00:33:33;;;;;;;9.95;2.50;;;;;;;12.99;100.00;92725.97;2106332;28;20050;-80
2023/07/29 00:34:34;;;;;;;3.90;2.40;;;;;;;12.89;100.00;92725.19;2106846;28;20028;-81
2023/07/29 00:35:35;;;;;;;4.72;2.45;;;;;;;12.89;100.00;92724.44;2113745;27;20044;-79
2023/07/29 00:36:36;;;;;;;8.48;2.30;;;;;;;12.89;100.00;92727.88;2115300;28;20115;-81
2023/07/29 00:37:37;;;;;;;5.05;2.20;;;;;;;12.95;100.00;92719.97;2116860;27;20027;-79
2023/07/29 00:38:38;;;;;;;7.00;2.50;;;;;;;12.94;100.00;92724.59;2115242;27;20016;-81
2023/07/29 00:39:40;;;;;;;5.05;2.45;;;;;;;12.98;100.00;92725.22;2112184;28;20110;-79
2023/07/29 00:40:41;;;;;;;7.75;1.95;;;;;;;12.97;100.00;92715.69;2106582;28;20537;-79
2023/07/29 00:41:43;;;;;;;6.70;2.35;;;;;;;13.04;100.00;92723.47;2106986;28;20031;-80
2023/07/29 00:42:43;;;;;;;4.72;2.28;;;;;;;12.97;100.00;92718.38;2106637;28;20097;-77
2023/07/29 00:43:44;;;;;;;3.03;2.15;;;;;;;13.00;100.00;92722.88;2101637;28;20424;-80
2023/07/29 00:44:45;;;;;;;4.60;2.30;;;;;;;13.09;100.00;92720.22;2100612;28;20032;-82
2023/07/29 00:45:47;;;;;;;5.57;2.45;;;;;;;13.01;100.00;92726.28;2115263;28;20047;-83
2023/07/29 00:46:51;;;;;;;3.22;2.40;;;;;;;12.96;100.00;92718.81;2100964;28;20048;-81
2023/07/29 00:47:53;;;;;;;4.55;2.30;;;;;;;12.93;100.00;92725.81;2104780;27;20050;-82
2023/07/29 00:48:55;;;;;;;6.82;2.10;;;;;;;12.87;100.00;92726.81;2104447;28;20023;-81
2023/07/29 00:49:56;;;;;;;6.63;1.95;;;;;;;12.80;100.00;92730.50;2109912;28;20023;-82
2023/07/29 00:50:56;;;;;;;5.65;2.20;;;;;;;12.77;100.00;92726.75;2107341;28;20024;-80
2023/07/29 00:51:57;;;;;;;5.55;2.33;;;;;;;12.78;100.00;92722.91;2106641;28;20114;-80
2023/07/29 00:52:58;;;;;;;4.57;1.88;;;;;;;12.72;100.00;92731.94;2106381;28;20008;-82
2023/07/29 00:53:59;;;;;;;6.57;2.60;;;;;;;12.71;100.00;92730.44;2113069;28;20027;-83
2023/07/29 00:55:01;;;;;;;8.85;2.70;;;;;;;12.79;100.00;92727.06;2114267;28;20056;-80
2023/07/29 00:56:03;;;;;;;5.72;2.50;;;;;;;12.78;100.00;92724.84;2106481;28;20461;-81
2023/07/29 00:57:04;;;;;;;7.13;2.67;;;;;;;12.72;100.00;92721.97;2093249;28;20039;-82
2023/07/29 00:58:05;;;;;;;3.22;2.38;;;;;;;12.78;100.00;92727.53;2106852;28;20025;-79
2023/07/29 00:59:06;;;;;;;5.20;2.38;;;;;;;12.93;100.00;92736.53;2121421;27;20054;-80
2023/07/29 01:00:08;;;;;;;4.45;2.05;;;;;;;12.93;100.00;92725.81;2113280;28;20479;-79
2023/07/29 01:01:09;;;;;;;8.63;2.38;;;;;;;12.86;100.00;92726.06;2106553;28;20016;-82
2023/07/29 01:02:10;;;;;;;7.60;2.70;;;;;;;12.79;100.00;92723.66;2109636;27;20022;-82
2023/07/29 01:03:11;;;;;;;3.83;2.33;;;;;;;13.09;100.00;92725.59;2114977;28;20068;-78
2023/07/29 01:04:12;;;;;;;11.20;2.47;;;;;;;13.15;100.00;92717.69;2110540;28;20081;-82
2023/07/29 01:05:15;;;;;;;9.55;2.72;;;;;;;13.01;100.00;92720.94;2098088;28;20028;-82
2023/07/29 01:06:34;;;;;;;3.38;2.13;;;;;;;12.93;100.00;92725.06;2089998;28;20025;-80
2023/07/29 01:07:55;;;;;;;2.63;2.25;;;;;;;12.91;100.00;92719.41;2106895;28;20107;-82
2023/07/29 01:09:03;;;;;;;3.50;2.30;;;;;;;12.88;100.00;92717.59;2114557;27;20023;-79
2023/07/29 01:10:15;;;;;;;5.55;2.00;;;;;;;12.82;100.00;92714.72;2107429;28;20016;-79
2023/07/29 01:11:57;;;;;;;6.72;2.03;;;;;;;12.73;100.00;92714.66;2114819;28;20026;-81
2023/07/29 01:13:19;;;;;;;6.07;2.08;;;;;;;12.78;100.00;92714.13;2098042;28;20029;-82
2023/07/29 01:14:46;;;;;;;3.55;1.60;;;;;;;12.75;100.00;92706.94;2106600;27;20028;-79
2023/07/29 01:15:47;;;;;;;5.07;2.00;;;;;;;12.71;100.00;92714.38;2102870;28;20043;-82
2023/07/29 01:17:00;;;;;;;6.00;2.08;;;;;;;12.87;100.00;92711.47;2106647;28;20097;-82
2023/07/29 01:18:15;;;;;;;4.60;2.15;;;;;;;12.81;100.00;92707.84;2112357;28;20019;-81
2023/07/29 01:19:42;;;;;;;3.13;1.98;;;;;;;12.73;100.00;92706.63;2094491;28;21114;-81
2023/07/29 01:20:44;;;;;;;6.45;2.10;;;;;;;12.67;100.00;92700.34;2105409;28;20107;-84
2023/07/29 01:21:45;;;;;;;4.72;2.03;;;;;;;12.77;100.00;92704.53;2105998;28;20040;-78
2023/07/29 01:22:47;;;;;;;7.38;1.98;;;;;;;12.77;100.00;92696.50;2106614;28;20108;-83
2023/07/29 01:23:51;;;;;;;6.72;1.98;;;;;;;12.72;100.00;92699.75;2112468;28;20034;-80
2023/07/29 01:24:52;;;;;;;3.42;1.90;;;;;;;12.66;100.00;92696.91;2109619;27;20244;-79
2023/07/29 01:25:53;;;;;;;11.15;2.20;;;;;;;12.56;100.00;92698.78;2112837;28;20031;-79
2023/07/29 01:26:54;;;;;;;7.95;1.65;;;;;;;12.50;100.00;92700.53;2110216;28;20024;-79
2023/07/29 01:27:55;;;;;;;5.07;1.60;;;;;;;12.55;100.00;92709.94;2098093;28;20046;-81
2023/07/29 01:28:58;;;;;;;5.53;1.80;;;;;;;12.49;100.00;92703.66;2089624;28;20024;-82
2023/07/29 01:30:01;;;;;;;5.32;1.48;;;;;;;12.54;100.00;92703.84;2099943;28;20024;-79
2023/07/29 01:31:10;;;;;;;2.78;1.50;;;;;;;12.52;100.00;92703.53;2098150;28;20465;-82
2023/07/29 01:32:29;;;;;;;3.97;1.70;;;;;;;12.46;100.00;92707.19;2105882;28;20439;-81
2023/07/29 01:33:37;;;;;;;3.28;1.50;;;;;;;12.45;100.00;92703.78;2109043;28;20012;-80
2023/07/29 01:35:26;;;;;;;3.22;1.40;;;;;;;12.29;100.00;92710.09;2104173;28;20051;-83
2023/07/29 01:36:32;;;;;;;7.18;1.50;;;;;;;12.40;100.00;92714.31;2081188;28;20049;-82
2023/07/29 01:37:34;;;;;;;4.13;1.50;;;;;;;12.48;100.00;92700.22;2080527;28;20025;-78
2023/07/29 01:38:38;;;;;;;5.65;2.00;;;;;;;12.48;100.00;92708.28;2106621;28;20157;-79
2023/07/29 01:39:39;;;;;;;2.95;1.70;;;;;;;12.49;100.00;92703.66;2106279;28;20020;-81
2023/07/29 01:40:42;;;;;;;4.85;1.50;;;;;;;12.35;100.00;92715.63;2106507;28;20465;-80
2023/07/29 01:41:44;;;;;;;4.25;1.33;;;;;;;12.39;100.00;92716.25;2114373;28;20110;-79
2023/07/29 01:42:46;;;;;;;1.92;1.55;;;;;;;12.39;100.00;92707.47;2099162;28;20029;-81
2023/07/29 01:44:15;;;;;;;3.20;1.42;;;;;;;12.41;100.00;92708.50;2106530;28;20381;-83
2023/07/29 01:45:16;;;;;;;2.42;1.40;;;;;;;12.43;100.00;92708.84;2114678;28;20110;-82
2023/07/29 01:46:17;;;;;;;5.07;1.30;;;;;;;12.32;100.00;92708.44;2116647;27;20016;-80
2023/07/29 01:47:18;;;;;;;2.85;1.48;;;;;;;12.40;100.00;92706.28;2123881;27;20026;-79
2023/07/29 01:48:19;;;;;;;2.47;1.42;;;;;;;12.41;100.00;92702.41;2121517;27;20027;-77
2023/07/29 01:49:19;;;;;;;4.28;1.35;;;;;;;12.52;100.00;92708.91;2111922;28;20051;-79
2023/07/29 01:50:20;;;;;;;2.15;1.33;;;;;;;12.77;100.00;92712.59;2108738;28;20043;-78
2023/07/29 01:51:22;;;;;;;2.17;1.40;;;;;;;12.70;100.00;92702.16;2117027;28;20110;-79
2023/07/29 01:52:23;;;;;;;4.32;1.70;;;;;;;12.64;100.00;92707.31;2113900;28;20460;-79
2023/07/29 01:53:24;;;;;;;7.72;1.58;;;;;;;12.57;100.00;92705.66;2108163;28;20035;-77
2023/07/29 01:54:25;;;;;;;3.10;1.48;;;;;;;12.44;100.00;92704.97;2114444;28;20028;-77
2023/07/29 01:55:26;;;;;;;5.53;1.98;;;;;;;12.62;100.00;92704.34;2123216;27;20057;-78
2023/07/29 01:56:27;;;;;;;6.75;1.95;;;;;;;12.59;100.00;92700.59;2126598;27;20549;-77
2023/07/29 01:57:28;;;;;;;4.72;1.40;;;;;;;12.50;100.00;92699.78;2122939;27;20019;-77
2023/07/29 01:58:29;;;;;;;1.88;1.48;;;;;;;12.46;100.00;92701.84;2102026;28;20028;-79
2023/07/29 01:59:30;;;;;;;5.13;1.67;;;;;;;12.41;100.00;92697.78;2091554;28;20129;-80
2023/07/29 02:00:31;;;;;;;5.43;1.60;;;;;;;12.42;100.00;92699.28;2089801;28;20094;-82
2023/07/29 02:01:31;;;;;;;3.60;1.55;;;;;;;12.33;100.00;92701.91;2106413;28;20429;-81
2023/07/29 02:02:32;;;;;;;6.20;1.50;;;;;;;12.37;100.00;92701.78;2106340;28;20077;-81
2023/07/29 02:03:33;;;;;;;4.63;1.33;;;;;;;12.30;100.00;92697.44;2113443;28;20127;-79
2023/07/29 02:04:40;;;;;;;1.90;1.50;;;;;;;12.31;100.00;92702.34;2108209;28;20103;-79
2023/07/29 02:05:43;;;;;;;4.00;1.40;;;;;;;12.32;100.00;92690.44;2116163;27;20019;-79
2023/07/29 02:08:41;;;;;;;2.38;1.38;;;;;;;12.25;100.00;92692.63;2107771;28;20025;-81
2023/07/29 02:09:42;;;;;;;2.33;1.60;;;;;;;12.28;100.00;92697.84;2111026;27;20034;-80
2023/07/29 02:10:45;;;;;;;3.58;1.63;;;;;;;12.24;100.00;92691.13;2106380;28;20027;-80
2023/07/29 02:11:45;;;;;;;13.45;1.77;;;;;;;12.14;100.00;92694.94;2103290;28;20027;-79
2023/07/29 02:12:46;;;;;;;3.85;1.27;;;;;;;12.17;100.00;92697.50;2089710;28;20039;-82
2023/07/29 02:13:47;;;;;;;3.60;1.50;;;;;;;12.07;100.00;92699.34;2111339;28;20034;-82
2023/07/29 02:14:48;;;;;;;3.83;1.30;;;;;;;12.14;100.00;92692.25;2113673;27;20023;-81
2023/07/29 02:15:49;;;;;;;3.55;1.70;;;;;;;12.07;100.00;92703.94;2120730;27;20045;-82
2023/07/29 02:16:50;;;;;;;8.05;1.42;;;;;;;12.03;100.00;92695.31;2105914;28;20508;-81
2023/07/29 02:17:51;;;;;;;4.55;1.60;;;;;;;12.07;100.00;92696.69;2113721;28;20443;-80
2023/07/29 02:18:52;;;;;;;6.25;1.52;;;;;;;12.13;100.00;92694.19;2114400;28;20194;-81
2023/07/29 02:19:53;;;;;;;5.43;1.33;;;;;;;12.16;100.00;92695.22;2106334;28;20035;-79
2023/07/29 02:22:16;;;;;;;2.17;1.30;;;;;;;12.08;100.00;92697.44;2139509;27;20177;-82
2023/07/29 02:23:17;;;;;;;8.38;1.35;;;;;;;12.12;100.00;92697.31;2125506;27;20183;-83
2023/07/29 02:24:18;;;;;;;2.30;1.20;;;;;;;12.07;100.00;92704.72;2113355;28;20488;-80
2023/07/29 02:25:19;;;;;;;2.42;1.33;;;;;;;12.13;100.00;92699.53;2112963;28;20027;-80
2023/07/29 02:26:20;;;;;;;4.82;1.63;;;;;;;12.18;100.00;92696.31;2105073;28;20025;-82
2023/07/29 02:27:21;;;;;;;7.40;1.70;;;;;;;12.22;100.00;92701.53;2111504;28;20024;-82
2023/07/29 02:28:22;;;;;;;4.45;1.48;;;;;;;12.26;100.00;92699.50;2104949;28;20178;-82
2023/07/29 02:29:24;;;;;;;5.95;1.52;;;;;;;12.30;100.00;92695.50;2113741;28;20024;-80
2023/07/29 02:30:25;;;;;;;10.35;1.67;;;;;;;12.35;100.00;92699.56;2112974;28;20115;-82
2023/07/29 02:31:27;;;;;;;4.60;1.50;;;;;;;12.43;100.00;92700.78;2113365;28;20026;-80
2023/07/29 02:32:28;;;;;;;4.18;1.40;;;;;;;12.44;100.00;92696.94;2114848;28;20384;-80
2023/07/29 02:33:28;;;;;;;4.68;1.58;;;;;;;12.47;100.00;92696.06;2096322;28;20505;-80
2023/07/29 02:34:30;;;;;;;7.57;1.50;;;;;;;12.56;100.00;92690.00;2096765;28;20029;-82
2023/07/29 02:35:36;;;;;;;3.47;1.63;;;;;;;12.78;100.00;92701.44;2121297;28;20344;-82
2023/07/29 02:36:37;;;;;;;2.58;1.25;;;;;;;12.83;100.00;92705.50;2121716;28;20050;-83
2023/07/29 02:37:37;;;;;;;4.65;1.73;;;;;;;12.81;100.00;92697.88;2120887;27;20027;-81
2023/07/29 02:38:39;;;;;;;2.53;1.30;;;;;;;12.82;100.00;92701.31;2120386;28;20026;-83
2023/07/29 02:39:40;;;;;;;6.63;1.60;;;;;;;12.90;100.00;92707.16;2104935;28;20460;-82
2023/07/29 02:40:41;;;;;;;2.92;1.70;;;;;;;12.84;100.00;92698.94;2116738;28;20035;-80
2023/07/29 02:41:42;;;;;;;2.88;1.20;;;;;;;12.86;100.00;92699.22;2113868;28;20031;-79
2023/07/29 02:42:43;;;;;;;4.05;1.23;;;;;;;12.96;100.00;92703.47;2112924;28;20471;-81
2023/07/29 02:43:48;;;;;;;3.25;1.77;;;;;;;12.93;100.00;92698.97;2106998;28;20028;-82
2023/07/29 02:44:49;;;;;;;4.38;1.40;;;;;;;12.94;100.00;92697.78;2104846;28;20028;-80
2023/07/29 02:45:50;;;;;;;3.25;1.42;;;;;;;12.92;100.00;92699.41;2096448;28;20457;-80
2023/07/29 02:46:52;;;;;;;3.28;1.30;;;;;;;12.93;100.00;92693.59;2089003;28;20025;-82
2023/07/29 02:47:53;;;;;;;6.07;1.50;;;;;;;12.95;100.00;92698.53;2098192;28;20025;-81
2023/07/29 02:48:54;;;;;;;5.47;1.58;;;;;;;12.92;100.00;92702.84;2118760;28;20026;-80
2023/07/29 02:49:55;;;;;;;2.80;1.80;;;;;;;12.94;100.00;92700.47;2110422;28;20077;-81
2023/07/29 02:50:56;;;;;;;3.20;1.50;;;;;;;12.98;100.00;92705.69;2099656;28;20529;-82
2023/07/29 02:51:57;;;;;;;3.20;1.52;;;;;;;12.95;100.00;92699.28;2104721;28;20025;-82
2023/07/29 02:52:58;;;;;;;2.50;1.40;;;;;;;12.91;100.00;92685.28;2113058;28;20061;-84
2023/07/29 02:53:59;;;;;;;5.30;1.60;;;;;;;12.93;100.00;92700.91;2112884;28;20090;-82
2023/07/29 02:55:00;;;;;;;3.95;1.67;;;;;;;12.92;100.00;92686.75;2106086;28;20028;-82
2023/07/29 02:56:01;;;;;;;6.72;1.48;;;;;;;12.88;100.00;92694.19;2113181;28;20098;-83
2023/07/29 02:57:02;;;;;;;1.70;1.20;;;;;;;12.91;100.00;92685.28;2105340;28;20024;-82
2023/07/29 02:58:03;;;;;;;4.60;1.50;;;;;;;12.94;100.00;92697.78;2115552;28;20027;-80
2023/07/29 02:59:04;;;;;;;3.88;1.90;;;;;;;13.01;100.00;92688.72;2096184;28;20389;-79
2023/07/29 03:00:07;;;;;;;4.65;1.60;;;;;;;13.03;100.00;92694.38;2109980;28;20051;-82
2023/07/29 03:01:08;;;;;;;2.25;1.60;;;;;;;13.05;100.00;92697.41;2112736;28;20107;-79
2023/07/29 03:02:09;;;;;;;2.58;1.85;;;;;;;13.06;100.00;92690.84;2112086;28;20032;-82
2023/07/29 03:03:10;;;;;;;1.70;1.45;;;;;;;13.04;100.00;92688.59;2106416;28;20025;-81
2023/07/29 03:04:12;;;;;;;3.58;1.42;;;;;;;13.03;100.00;92697.81;2112592;28;20103;-81
2023/07/29 03:05:13;;;;;;;1.95;1.60;;;;;;;13.09;100.00;92693.38;2104591;28;20020;-79
2023/07/29 03:06:15;;;;;;;2.05;1.40;;;;;;;13.12;100.00;92694.41;2087644;28;20600;-82
2023/07/29 03:07:16;;;;;;;2.05;1.40;;;;;;;13.12;100.00;92689.06;2097036;28;20030;-80
2023/07/29 03:08:17;;;;;;;5.22;1.63;;;;;;;13.09;100.00;92685.34;2112815;28;20016;-82
2023/07/29 03:09:18;;;;;;;1.92;1.63;;;;;;;13.13;100.00;92687.16;2112188;28;20024;-82
2023/07/29 03:10:20;;;;;;;4.50;1.50;;;;;;;13.14;100.00;92683.25;2104633;28;20125;-82
2023/07/29 03:11:21;;;;;;;5.70;1.75;;;;;;;13.15;100.00;92674.75;2111416;28;20020;-81
2023/07/29 03:12:22;;;;;;;2.00;1.60;;;;;;;13.19;100.00;92690.72;2112782;28;20106;-82
2023/07/29 03:13:23;;;;;;;5.45;1.50;;;;;;;13.24;100.00;92680.19;2106562;28;20020;-80
2023/07/29 03:14:24;;;;;;;2.85;1.80;;;;;;;13.22;100.00;92681.81;2104288;28;20043;-81
2023/07/29 03:15:25;;;;;;;1.85;1.25;;;;;;;13.18;100.00;92673.88;2095983;28;20041;-81
2023/07/29 03:16:26;;;;;;;4.75;1.70;;;;;;;13.11;100.00;92669.53;2091119;28;20150;-80
2023/07/29 03:17:27;;;;;;;6.68;1.60;;;;;;;13.08;100.00;92675.78;2096354;28;20067;-83
2023/07/29 03:18:28;;;;;;;1.90;1.40;;;;;;;13.10;100.00;92675.34;2095809;28;20047;-81
2023/07/29 03:19:29;;;;;;;3.50;1.70;;;;;;;13.08;100.00;92673.13;2103957;28;20075;-83
2023/07/29 03:20:30;;;;;;;5.97;1.90;;;;;;;13.03;100.00;92665.63;2112689;28;20066;-83
2023/07/29 03:21:31;;;;;;;2.08;1.60;;;;;;;13.05;100.00;92665.19;2112968;28;20380;-82
2023/07/29 03:22:32;;;;;;;2.55;1.90;;;;;;;13.06;100.00;92664.75;2106361;28;20048;-82
2023/07/29 03:23:33;;;;;;;6.25;1.73;;;;;;;13.07;100.00;92668.16;2104801;28;20020;-80
2023/07/29 03:24:34;;;;;;;4.80;1.65;;;;;;;13.13;100.00;92671.78;2105608;28;20020;-83
2023/07/29 03:25:35;;;;;;;6.40;1.70;;;;;;;13.11;100.00;92671.47;2115614;28;20069;-82
2023/07/29 03:26:36;;;;;;;2.80;2.28;;;;;;;13.17;100.00;92663.56;2121852;27;20024;-79
2023/07/29 03:27:37;;;;;;;2.35;1.63;;;;;;;13.19;100.00;92669.25;2113868;28;20723;-82
2023/07/29 03:28:41;;;;;;;5.85;2.00;;;;;;;13.20;100.00;92666.13;2104668;28;20527;-81
2023/07/29 03:29:42;;;;;;;3.80;2.08;;;;;;;13.18;100.00;92668.53;2116042;28;20035;-79
2023/07/29 03:30:43;;;;;;;3.88;1.73;;;;;;;13.14;100.00;92664.47;2103641;28;20035;-81
2023/07/29 03:31:44;;;;;;;7.38;2.38;;;;;;;13.10;100.00;92654.63;2095920;28;20020;-81
2023/07/29 03:32:45;;;;;;;4.50;1.90;;;;;;;13.10;100.00;92651.94;2096312;28;20043;-81
2023/07/29 03:33:46;;;;;;;5.00;1.90;;;;;;;13.07;100.00;92658.19;2090498;28;20025;-80
2023/07/29 03:34:47;;;;;;;5.43;2.10;;;;;;;13.06;100.00;92655.94;2096772;28;20028;-82
2023/07/29 03:35:48;;;;;;;6.53;1.98;;;;;;;12.98;100.00;92652.78;2090522;28;20025;-80
2023/07/29 03:36:51;;;;;;;3.95;1.98;;;;;;;12.98;100.00;92658.16;2090057;28;20029;-80
2023/07/29 03:37:52;;;;;;;2.33;2.13;;;;;;;13.01;100.00;92654.59;2100303;28;20033;-81
2023/07/29 03:38:53;;;;;;;6.15;2.15;;;;;;;12.96;100.00;92655.19;2104241;28;20024;-82
2023/07/29 03:39:54;;;;;;;4.80;2.17;;;;;;;12.99;100.00;92654.28;2084727;28;20029;-82
2023/07/29 03:40:56;;;;;;;5.38;1.83;;;;;;;13.02;100.00;92653.41;2098682;28;20078;-80
2023/07/29 03:41:58;;;;;;;4.78;2.03;;;;;;;13.01;100.00;92654.59;2100453;28;20114;-83
2023/07/29 03:42:59;;;;;;;2.85;2.10;;;;;;;12.96;100.00;92659.81;2096745;28;20103;-82
2023/07/29 03:44:00;;;;;;;4.03;1.95;;;;;;;12.99;100.00;92653.53;2107301;28;20464;-82
2023/07/29 03:45:01;;;;;;;5.63;1.83;;;;;;;12.99;100.00;92656.97;2098608;28;20029;-80
2023/07/29 03:46:17;;;;;;;6.85;2.63;;;;;;;13.00;100.00;92655.78;2082585;28;20041;-82
2023/07/29 03:47:18;;;;;;;3.47;2.00;;;;;;;13.02;100.00;92666.06;2090511;28;20388;-80
2023/07/29 03:48:19;;;;;;;6.43;1.92;;;;;;;13.05;100.00;92668.63;2090511;28;20025;-80
2023/07/29 03:49:20;;;;;;;3.97;2.10;;;;;;;13.09;100.00;92660.44;2090211;28;20033;-80
2023/07/29 03:50:21;;;;;;;3.20;1.88;;;;;;;13.10;100.00;92664.63;2100936;28;20052;-83
2023/07/29 03:51:24;;;;;;;5.82;2.05;;;;;;;13.12;100.00;92667.59;2098712;28;20028;-83
2023/07/29 03:52:25;;;;;;;9.68;2.58;;;;;;;13.16;100.00;92667.47;2111965;28;20034;-81
2023/07/29 03:53:26;;;;;;;4.30;2.13;;;;;;;13.13;100.00;92663.75;2114381;28;20016;-82
2023/07/29 03:54:27;;;;;;;2.60;2.10;;;;;;;13.15;100.00;92663.28;2095415;28;20048;-83
2023/07/29 03:55:29;;;;;;;7.65;2.05;;;;;;;13.22;100.00;92663.00;2084390;28;20018;-79
2023/07/29 03:56:30;;;;;;;4.50;1.95;;;;;;;13.17;100.00;92658.97;2082412;28;20568;-81
2023/07/29 03:57:31;;;;;;;4.03;1.80;;;;;;;13.14;100.00;92648.38;2097792;28;20020;-80
2023/07/29 03:58:32;;;;;;;4.22;1.95;;;;;;;13.24;100.00;92660.66;2098969;28;20033;-84
2023/07/29 03:59:33;;;;;;;2.63;2.00;;;;;;;13.12;100.00;92656.84;2092903;28;20520;-82
2023/07/29 04:00:34;;;;;;;6.53;2.13;;;;;;;13.10;100.00;92654.63;2109324;28;20027;-82
2023/07/29 04:01:35;;;;;;;2.53;2.00;;;;;;;13.06;100.00;92656.69;2106807;28;20020;-83
2023/07/29 04:02:37;;;;;;;4.20;2.05;;;;;;;13.14;100.00;92659.84;2103257;28;20035;-81
2023/07/29 04:03:38;;;;;;;3.45;2.08;;;;;;;13.05;100.00;92652.53;2101122;28;20031;-80
2023/07/29 04:04:41;;;;;;;6.43;2.30;;;;;;;13.06;100.00;92656.69;2107035;28;20027;-80
2023/07/29 04:05:42;;;;;;;6.75;2.25;;;;;;;13.16;100.00;92664.78;2090502;28;20590;-81
2023/07/29 04:06:43;;;;;;;8.73;2.13;;;;;;;13.14;100.00;92662.53;2092648;28;20029;-81
2023/07/29 04:07:44;;;;;;;4.05;2.05;;;;;;;13.17;100.00;92669.72;2098708;28;20563;-81
2023/07/29 04:08:45;;;;;;;5.82;2.63;;;;;;;13.22;100.00;92665.69;2089933;28;20104;-80
2023/07/29 04:09:46;;;;;;;5.43;2.05;;;;;;;13.21;100.00;92670.28;2098286;28;20028;-81
2023/07/29 04:10:48;;;;;;;6.55;2.33;;;;;;;13.27;100.00;92673.94;2107660;28;20401;-79
2023/07/29 04:11:49;;;;;;;2.78;1.88;;;;;;;13.27;100.00;92668.56;2103319;28;20024;-83
2023/07/29 04:12:50;;;;;;;5.13;2.10;;;;;;;13.28;100.00;92674.69;2103801;28;20031;-82
2023/07/29 04:13:51;;;;;;;5.20;2.20;;;;;;;13.24;100.00;92669.44;2106403;28;20110;-83
2023/07/29 04:14:52;;;;;;;2.67;2.03;;;;;;;13.25;100.00;92664.81;2099432;28;20031;-81
2023/07/29 04:15:53;;;;;;;3.65;1.85;;;;;;;13.32;100.00;92670.66;2099240;28;20029;-82
2023/07/29 04:17:01;;;;;;;6.05;2.40;;;;;;;13.23;100.00;92664.53;2101918;28;20357;-82
2023/07/29 04:18:02;;;;;;;5.72;2.25;;;;;;;13.20;100.00;92660.75;2107843;28;20090;-83
2023/07/29 04:19:03;;;;;;;4.95;2.10;;;;;;;13.23;100.00;92662.59;2099048;28;20448;-80
2023/07/29 04:20:04;;;;;;;5.00;2.22;;;;;;;13.19;100.00;92661.22;2104200;28;20077;-83
2023/07/29 04:21:05;;;;;;;7.03;2.33;;;;;;;13.28;100.00;92663.94;2098299;28;20024;-82
2023/07/29 04:22:06;;;;;;;3.97;2.20;;;;;;;13.30;100.00;92667.69;2096025;28;20469;-82
2023/07/29 04:23:07;;;;;;;3.53;2.20;;;;;;;13.44;100.00;92660.25;2106844;28;20444;-83
2023/07/29 04:24:08;;;;;;;7.00;2.45;;;;;;;13.42;100.00;92668.00;2106904;28;20031;-81
2023/07/29 04:25:09;;;;;;;3.45;2.53;;;;;;;13.44;100.00;92669.06;2097145;28;20020;-81
2023/07/29 04:26:10;;;;;;;5.45;2.70;;;;;;;13.47;100.00;92670.84;2081986;28;20064;-79
2023/07/29 04:27:11;;;;;;;8.93;2.83;;;;;;;13.46;100.00;92676.66;2102311;28;20024;-80
2023/07/29 04:28:12;;;;;;;7.97;2.20;;;;;;;13.42;100.00;92673.38;2110457;28;20515;-80
2023/07/29 04:29:12;;;;;;;8.73;2.50;;;;;;;13.44;100.00;92668.31;2098176;28;20020;-80
2023/07/29 04:30:14;;;;;;;7.00;2.20;;;;;;;13.41;100.00;92674.56;2092294;28;20036;-80
2023/07/29 04:31:15;;;;;;;8.52;2.30;;;;;;;13.32;100.00;92667.25;2105980;28;20039;-83
2023/07/29 04:32:16;;;;;;;3.47;2.45;;;;;;;13.36;100.00;92670.53;2098324;28;20066;-81
2023/07/29 04:33:16;;;;;;;8.07;2.30;;;;;;;13.54;100.00;92659.09;2098173;28;20405;-83
2023/07/29 04:34:18;;;;;;;10.05;3.03;;;;;;;13.54;100.00;92665.19;2107671;28;20027;-81
2023/07/29 04:35:19;;;;;;;6.85;2.50;;;;;;;13.50;100.00;92663.84;2105642;28;20024;-82
2023/07/29 04:36:20;;;;;;;6.25;2.53;;;;;;;13.45;100.00;92664.44;2107269;28;20058;-80
2023/07/29 04:37:29;;;;;;;9.27;2.65;;;;;;;13.44;100.00;92660.25;2106643;28;20035;-82
2023/07/29 04:38:32;;;;;;;9.20;2.80;;;;;;;13.41;100.00;92661.88;2106824;28;20399;-83
2023/07/29 04:39:33;;;;;;;5.20;2.50;;;;;;;13.43;100.00;92656.81;2097000;28;20440;-83
2023/07/29 04:40:35;;;;;;;6.90;2.35;;;;;;;13.44;100.00;92655.63;2081944;28;20053;-80
2023/07/29 04:41:36;;;;;;;5.07;2.30;;;;;;;13.55;100.00;92655.94;2089848;28;20029;-84
2023/07/29 04:42:37;;;;;;;8.25;2.90;;;;;;;13.51;100.00;92673.38;2098284;28;20115;-83
2023/07/29 04:43:38;;;;;;;5.22;2.40;;;;;;;13.48;100.00;92675.03;2103838;28;20032;-80
2023/07/29 04:44:38;;;;;;;6.95;2.97;;;;;;;13.44;100.00;92676.38;2098383;28;20021;-80
2023/07/29 04:45:43;;;;;;;2.90;2.55;;;;;;;13.48;100.00;92669.66;2106814;28;20048;-81
2023/07/29 04:46:44;;;;;;;4.40;2.30;;;;;;;13.53;100.00;92677.13;2094195;28;20470;-82
2023/07/29 04:47:46;;;;;;;9.20;2.63;;;;;;;13.52;100.00;92667.59;2094357;28;20042;-80
2023/07/29 04:48:47;;;;;;;3.92;2.70;;;;;;;13.53;100.00;92684.44;2105973;28;20520;-80
2023/07/29 04:49:48;;;;;;;3.72;2.20;;;;;;;13.49;100.00;92676.53;2097274;28;20078;-80
2023/07/29 04:50:49;;;;;;;4.15;2.28;;;;;;;13.48;100.00;92675.03;2090038;28;20389;-82
2023/07/29 04:51:50;;;;;;;5.70;2.58;;;;;;;13.43;100.00;92683.66;2089780;28;20142;-80
2023/07/29 04:52:52;;;;;;;6.53;2.38;;;;;;;13.48;100.00;92680.41;2106263;28;20054;-83
2023/07/29 04:53:53;;;;;;;9.23;2.83;;;;;;;13.53;100.00;92687.88;2106645;28;20073;-81